Terminal Aerodrome Forecast
Issued by NWS

Current Version | Previous Version | Text Only | Print | Product List | Glossary On
Versions: 1 2 3 4 5 6 7 8 9 10 11 12 13 14 15 16 17 18 19
000
FTAK31 PAJN 291700
TAFAGY
TAF
PAGY 291721Z 2918/3018 23005KT P6SM -SHRA BKN005 BKN060 OVC070
      TEMPO 2918/2921 6SM BR SCT002 BKN015 OVC040
     FM292100 22012KT P6SM -SHRA SCT020 OVC050
     FM300600 21005KT 5SM -SHRA BR FEW005 SCT025 BKN050
     FM301300 21008KT P6SM VCSH FEW010 SCT025 BKN050
      AMD LTD TO CLD VIS AND WIND=

USA.gov is the U.S. government's official web portal to all federal, state and local government web resources and services.